createdAt,value
2023-04-20T00:00:48.773Z,16.13
2023-04-20T00:03:18.441Z,16.30
2023-04-20T00:05:49.293Z,18.27
2023-04-20T00:08:17.468Z,19.60
2023-04-20T00:10:45.317Z,15.87
2023-04-20T00:13:13.414Z,15.53
2023-04-20T00:15:41.185Z,16.60
2023-04-20T00:18:08.938Z,17.40
2023-04-20T00:20:36.914Z,14.43
2023-04-20T00:23:06.235Z,16.13
2023-04-20T00:25:34.139Z,17.30
2023-04-20T00:28:02.085Z,16.73
2023-04-20T00:30:29.836Z,15.47
2023-04-20T00:32:57.626Z,15.03
2023-04-20T00:35:25.783Z,13.47
2023-04-20T00:37:53.528Z,14.07
2023-04-20T00:40:22.800Z,14.57
2023-04-20T00:42:50.852Z,13.87
2023-04-20T00:45:18.698Z,17.87
2023-04-20T00:47:47.434Z,17.87
2023-04-20T00:50:15.754Z,19.70
2023-04-20T00:52:43.713Z,20.40
2023-04-20T00:55:12.118Z,18.13
2023-04-20T00:57:41.994Z,19.43
2023-04-20T01:00:11.055Z,21.30
2023-04-20T01:02:39.181Z,19.30
2023-04-20T01:05:08.351Z,21.77
2023-04-20T01:07:36.785Z,20.73
2023-04-20T01:10:05.175Z,21.53
2023-04-20T01:12:32.941Z,21.03
2023-04-20T01:15:03.087Z,22.17
2023-04-20T01:17:30.919Z,21.17
2023-04-20T01:20:00.088Z,23.13
2023-04-20T01:22:29.183Z,21.63
2023-04-20T01:24:56.934Z,29.30
2023-04-20T01:27:24.680Z,22.77
2023-04-20T01:29:52.389Z,20.93
2023-04-20T01:32:20.106Z,30.57
2023-04-20T01:34:47.821Z,23.43
2023-04-20T01:37:15.711Z,27.33
2023-04-20T01:39:45.829Z,27.80
2023-04-20T01:42:13.598Z,24.17
2023-04-20T01:44:41.325Z,24.50
2023-04-20T01:47:09.146Z,26.87
2023-04-20T01:49:37.010Z,27.03
2023-04-20T01:52:04.767Z,27.57
2023-04-20T01:54:32.505Z,25.17
2023-04-20T01:57:02.456Z,26.10
2023-04-20T01:59:30.314Z,29.10
2023-04-20T02:01:58.259Z,30.43
2023-04-20T02:04:26.468Z,33.33
2023-04-20T02:06:54.267Z,28.57
2023-04-20T02:09:21.982Z,26.87
2023-04-20T02:11:49.792Z,29.77
2023-04-20T02:14:18.886Z,34.57
2023-04-20T02:16:46.810Z,30.50
2023-04-20T02:19:14.578Z,31.80
2023-04-20T02:21:42.287Z,34.87
2023-04-20T02:24:10.009Z,38.57
2023-04-20T02:26:37.799Z,36.17
2023-04-20T02:29:05.568Z,32.27
2023-04-20T02:31:34.731Z,37.23
2023-04-20T02:34:02.677Z,37.23
2023-04-20T02:36:30.938Z,29.43
2023-04-20T02:38:58.640Z,31.57
2023-04-20T02:41:26.404Z,33.30
2023-04-20T02:43:54.119Z,37.90
2023-04-20T02:46:22.036Z,39.63
2023-04-20T02:48:51.179Z,37.17
2023-04-20T02:51:18.958Z,43.17
2023-04-20T02:53:46.771Z,37.37
2023-04-20T02:56:14.512Z,44.73
2023-04-20T02:58:42.218Z,44.43
2023-04-20T03:01:09.959Z,39.10
2023-04-20T03:03:37.893Z,38.40
2023-04-20T03:06:07.919Z,45.60
2023-04-20T03:08:35.794Z,41.17
2023-04-20T03:11:03.602Z,34.53
2023-04-20T03:13:31.357Z,35.23
2023-04-20T03:15:59.124Z,35.43
2023-04-20T03:18:26.893Z,38.47
2023-04-20T03:20:54.887Z,32.07
2023-04-20T03:23:24.145Z,31.00
2023-04-20T03:25:51.899Z,32.53
2023-04-20T03:28:19.630Z,31.40
2023-04-20T03:30:47.356Z,28.07
2023-04-20T03:33:15.113Z,31.17
2023-04-20T03:35:43.208Z,35.27
2023-04-20T03:38:11.120Z,28.93
2023-04-20T03:40:40.173Z,29.53
2023-04-20T03:43:07.883Z,30.23
2023-04-20T03:45:36.137Z,32.90
2023-04-20T03:48:04.240Z,36.73
2023-04-20T03:50:32.109Z,30.77
2023-04-20T03:52:59.957Z,31.00
2023-04-20T03:55:27.772Z,26.97
2023-04-20T03:57:56.798Z,34.13
2023-04-20T04:00:24.629Z,30.63
2023-04-20T04:02:52.496Z,31.53
2023-04-20T04:05:20.634Z,27.87
2023-04-20T04:07:48.541Z,32.67
2023-04-20T04:10:17.856Z,36.07
2023-04-20T04:12:45.646Z,33.63
2023-04-20T04:15:14.984Z,30.20
2023-04-20T04:17:42.708Z,28.70
2023-04-20T04:20:12.032Z,30.00
2023-04-20T04:22:39.761Z,31.43
2023-04-20T04:25:08.664Z,38.47
2023-04-20T04:27:37.599Z,32.67
2023-04-20T04:30:06.114Z,32.30
2023-04-20T04:32:36.102Z,29.17
2023-04-20T04:35:04.500Z,23.97
2023-04-20T04:37:32.270Z,31.80
2023-04-20T04:40:00.105Z,31.00
2023-04-20T04:42:28.934Z,39.30
2023-04-20T04:44:56.938Z,38.50
2023-04-20T04:47:24.675Z,38.30
2023-04-20T04:49:54.685Z,41.40
2023-04-20T04:52:22.685Z,35.37
2023-04-20T04:54:50.809Z,32.30
2023-04-20T04:57:18.558Z,30.37
2023-04-20T04:59:46.476Z,29.80
2023-04-20T05:02:14.237Z,33.87
2023-04-20T05:04:42.154Z,30.03
2023-04-20T05:07:11.407Z,29.63
2023-04-20T05:09:39.237Z,33.07
2023-04-20T05:12:07.473Z,29.60
2023-04-20T05:14:35.357Z,32.07
2023-04-20T05:17:03.284Z,32.23
2023-04-20T05:19:31.058Z,32.47
2023-04-20T05:21:58.830Z,32.60
2023-04-20T05:24:27.935Z,38.47
2023-04-20T05:26:55.666Z,41.37
2023-04-20T05:29:23.393Z,34.83
2023-04-20T05:31:51.210Z,34.63
2023-04-20T05:34:19.032Z,33.63
2023-04-20T05:36:47.877Z,33.57
2023-04-20T05:39:16.062Z,33.10
2023-04-20T05:41:45.885Z,30.00
2023-04-20T05:44:13.616Z,34.33
2023-04-20T05:46:41.404Z,31.07
2023-04-20T05:49:09.197Z,32.57
2023-04-20T05:51:36.948Z,33.07
2023-04-20T05:54:05.216Z,34.20
2023-04-20T05:56:33.033Z,33.97
2023-04-20T05:59:02.411Z,32.87
2023-04-20T06:01:30.144Z,32.43
2023-04-20T06:03:58.119Z,31.90
2023-04-20T06:06:26.497Z,32.30
2023-04-20T06:08:55.100Z,34.07
2023-04-20T06:11:22.834Z,28.87
2023-04-20T06:13:50.834Z,34.13
2023-04-20T06:16:19.900Z,31.10
2023-04-20T06:18:47.819Z,28.17
2023-04-20T06:21:16.072Z,28.30
2023-04-20T06:23:44.496Z,29.77
2023-04-20T06:26:12.335Z,27.90
2023-04-20T06:28:40.174Z,28.43
2023-04-20T06:31:08.738Z,31.60
2023-04-20T06:33:37.826Z,28.50
2023-04-20T06:36:08.379Z,28.70
2023-04-20T06:38:36.321Z,32.20
2023-04-20T06:41:04.474Z,31.17
2023-04-20T06:43:32.314Z,33.77
2023-04-20T06:46:00.004Z,29.30
2023-04-20T06:48:31.538Z,26.73
2023-04-20T06:51:02.106Z,28.77
2023-04-20T06:53:29.916Z,34.20
2023-04-20T06:55:58.261Z,27.10
2023-04-20T06:58:25.955Z,32.73
2023-04-20T07:00:53.659Z,30.07
2023-04-20T07:03:21.563Z,29.93
2023-04-20T07:05:49.413Z,30.93
2023-04-20T07:08:18.839Z,27.97
2023-04-20T07:10:46.610Z,28.13
2023-04-20T07:13:14.418Z,29.93
2023-04-20T07:15:43.585Z,29.63
2023-04-20T07:18:11.361Z,30.47
2023-04-20T07:20:39.218Z,29.90
2023-04-20T07:23:07.009Z,30.13
2023-04-20T07:25:36.134Z,28.80
2023-04-20T07:28:03.898Z,29.73
2023-04-20T07:30:32.198Z,26.20
2023-04-20T07:33:00.109Z,24.03
2023-04-20T07:35:27.976Z,26.53
2023-04-20T07:37:56.345Z,22.03
2023-04-20T07:40:24.326Z,24.10
2023-04-20T07:42:53.382Z,26.57
2023-04-20T07:45:21.844Z,23.33
2023-04-20T07:47:51.721Z,24.70
2023-04-20T07:50:19.581Z,25.20
2023-04-20T07:52:47.516Z,23.83
2023-04-20T07:55:15.860Z,22.53
2023-04-20T07:57:43.673Z,23.73
2023-04-20T08:00:15.037Z,22.93
2023-04-20T08:02:42.874Z,23.67
2023-04-20T08:05:11.106Z,22.57
2023-04-20T08:07:39.373Z,23.27
2023-04-20T08:10:08.257Z,21.00
2023-04-20T08:12:36.340Z,20.43
2023-04-20T08:15:06.541Z,19.50
2023-04-20T08:17:35.812Z,19.47
2023-04-20T08:20:05.799Z,19.13
2023-04-20T08:22:34.274Z,20.37
2023-04-20T08:25:02.119Z,18.03
2023-04-20T08:27:30.629Z,19.87
2023-04-20T08:29:58.472Z,20.20
2023-04-20T08:32:26.771Z,19.23
2023-04-20T08:34:56.750Z,22.47
2023-04-20T08:37:25.502Z,20.93
2023-04-20T08:39:53.429Z,22.60
2023-04-20T08:42:21.184Z,25.17
2023-04-20T08:44:48.981Z,24.07
2023-04-20T08:47:16.739Z,23.13
2023-04-20T08:49:45.625Z,24.63
2023-04-20T08:52:15.000Z,25.07
2023-04-20T08:54:55.094Z,26.77
2023-04-20T08:57:25.947Z,27.37
2023-04-20T08:59:53.783Z,23.47
2023-04-20T09:02:21.986Z,28.00
2023-04-20T09:04:50.024Z,28.10
2023-04-20T09:07:20.563Z,25.50
2023-04-20T09:09:58.134Z,29.27
2023-04-20T09:12:26.545Z,24.37
2023-04-20T09:14:54.898Z,29.40
2023-04-20T09:17:33.161Z,26.33
2023-04-20T09:20:01.180Z,24.47
2023-04-20T09:22:34.155Z,27.93
2023-04-20T09:25:02.477Z,28.37
2023-04-20T09:27:30.274Z,26.77
2023-04-20T09:29:59.393Z,28.33
2023-04-20T09:32:29.236Z,27.83
2023-04-20T09:34:57.549Z,29.43
2023-04-20T09:37:25.694Z,29.73
2023-04-20T09:40:00.592Z,29.87
2023-04-20T09:42:29.521Z,34.77
2023-04-20T09:44:59.087Z,31.43
2023-04-20T09:47:29.783Z,27.47
2023-04-20T09:50:00.340Z,24.47
2023-04-20T09:52:38.060Z,24.07
2023-04-20T09:55:08.862Z,27.50
2023-04-20T09:57:37.319Z,22.87
2023-04-20T10:00:07.118Z,23.20
2023-04-20T10:02:35.182Z,20.60
2023-04-20T10:05:03.412Z,22.00
2023-04-20T10:07:33.184Z,24.43
2023-04-20T10:10:08.073Z,23.30
2023-04-20T10:12:37.032Z,18.83
2023-04-20T10:15:05.367Z,20.30
2023-04-20T10:17:34.252Z,22.93
2023-04-20T10:20:02.102Z,20.57
2023-04-20T10:22:33.313Z,19.60
2023-04-20T10:25:01.375Z,19.73
2023-04-20T10:27:32.242Z,18.57
2023-04-20T10:30:11.168Z,18.27
2023-04-20T10:32:39.069Z,20.17
2023-04-20T10:35:09.001Z,17.57
2023-04-20T10:37:48.994Z,16.43
2023-04-20T10:40:16.925Z,17.03
2023-04-20T10:42:46.387Z,18.60
2023-04-20T10:45:14.207Z,17.87
2023-04-20T10:47:42.049Z,18.90
2023-04-20T10:50:11.412Z,16.30
2023-04-20T10:52:40.773Z,18.60
2023-04-20T10:55:20.798Z,17.87
2023-04-20T10:57:50.241Z,18.33
2023-04-20T11:00:18.946Z,18.20
2023-04-20T11:02:50.944Z,16.97
2023-04-20T11:05:19.091Z,17.83
2023-04-20T11:07:53.688Z,15.30
2023-04-20T11:10:22.330Z,16.33
2023-04-20T11:12:52.058Z,17.67
2023-04-20T11:15:19.992Z,17.13
2023-04-20T11:17:47.839Z,16.30
2023-04-20T11:20:17.746Z,15.07
2023-04-20T11:22:45.700Z,16.00
2023-04-20T11:25:14.016Z,16.70
2023-04-20T11:27:43.165Z,16.27
2023-04-20T11:30:12.874Z,17.33
2023-04-20T11:32:40.886Z,16.33
2023-04-20T11:35:10.985Z,15.10
2023-04-20T11:37:47.780Z,15.00
2023-04-20T11:40:15.896Z,16.10
2023-04-20T11:42:44.037Z,17.80
2023-04-20T11:45:13.546Z,16.02
2023-04-20T11:47:41.603Z,16.10
2023-04-20T11:50:10.329Z,16.65
2023-04-20T11:52:38.241Z,17.27
2023-04-20T11:55:07.824Z,19.00
2023-04-20T11:57:36.151Z,20.17
2023-04-20T12:00:04.906Z,17.58
2023-04-20T12:02:34.158Z,15.77
2023-04-20T12:05:03.080Z,18.00
2023-04-20T12:07:31.227Z,15.47
2023-04-20T12:09:59.130Z,16.40
2023-04-20T12:12:27.041Z,14.63
2023-04-20T12:14:54.848Z,15.13
2023-04-20T12:17:22.809Z,15.38
2023-04-20T12:19:52.574Z,18.45
2023-04-20T12:22:20.379Z,16.77
2023-04-20T12:24:48.217Z,15.02
2023-04-20T12:27:16.352Z,15.02
2023-04-20T12:29:44.060Z,15.18
2023-04-20T12:32:11.878Z,16.70
2023-04-20T12:34:39.614Z,15.85
2023-04-20T12:37:09.079Z,13.57
2023-04-20T12:39:36.899Z,22.58
2023-04-20T12:42:05.016Z,13.15
2023-04-20T12:44:32.791Z,14.10
2023-04-20T12:47:00.623Z,18.35
2023-04-20T12:49:28.349Z,16.35
2023-04-20T12:51:56.089Z,14.98
2023-04-20T12:54:25.246Z,13.73
2023-04-20T12:56:53.007Z,19.45
2023-04-20T12:59:20.738Z,15.43
2023-04-20T13:01:48.618Z,15.38
2023-04-20T13:04:17.139Z,18.33
2023-04-20T13:06:45.130Z,14.02
2023-04-20T13:09:12.950Z,16.92
2023-04-20T13:11:42.067Z,16.20
2023-04-20T13:14:09.787Z,14.98
2023-04-20T13:16:37.953Z,12.48
2023-04-20T13:19:05.754Z,14.52
2023-04-20T13:21:34.134Z,16.42
2023-04-20T13:24:01.949Z,14.15
2023-04-20T13:26:29.853Z,15.63
2023-04-20T13:28:58.979Z,14.30
2023-04-20T13:31:26.860Z,13.48
2023-04-20T13:33:55.369Z,12.68
2023-04-20T13:36:23.271Z,17.65
2023-04-20T13:38:54.615Z,14.57
2023-04-20T13:41:23.563Z,21.95
2023-04-20T13:43:51.454Z,15.15
2023-04-20T13:46:21.080Z,17.13
2023-04-20T13:48:48.909Z,20.33
2023-04-20T13:51:16.652Z,14.13
2023-04-20T13:53:44.733Z,14.75
2023-04-20T13:56:12.522Z,16.38
2023-04-20T13:58:40.254Z,14.15
2023-04-20T14:01:13.096Z,14.82
2023-04-20T14:03:42.977Z,13.05
2023-04-20T14:06:10.867Z,17.20
2023-04-20T14:08:38.715Z,14.73
2023-04-20T14:11:06.828Z,13.52
2023-04-20T14:13:34.616Z,17.25
2023-04-20T14:16:02.517Z,13.65
2023-04-20T14:18:31.021Z,13.05
2023-04-20T14:21:00.113Z,14.05
2023-04-20T14:23:27.915Z,15.18
2023-04-20T14:25:55.713Z,12.63
2023-04-20T14:28:23.602Z,12.45
2023-04-20T14:30:51.561Z,15.10
2023-04-20T14:33:19.315Z,14.27
2023-04-20T14:35:47.080Z,14.10
2023-04-20T14:38:16.175Z,14.00
2023-04-20T14:40:44.025Z,15.20
2023-04-20T14:43:11.863Z,13.70
2023-04-20T14:45:41.627Z,14.02
2023-04-20T14:48:09.430Z,13.95
2023-04-20T14:50:37.336Z,15.63
2023-04-20T14:53:05.074Z,13.27
2023-04-20T14:55:34.216Z,13.00
2023-04-20T14:58:02.274Z,15.30
2023-04-20T15:00:30.378Z,14.32
2023-04-20T15:02:59.715Z,16.20
2023-04-20T15:05:28.648Z,13.70
2023-04-20T15:07:58.026Z,13.07
2023-04-20T15:10:25.823Z,13.57
2023-04-20T15:12:55.000Z,11.10
2023-04-20T15:15:22.859Z,14.48
2023-04-20T15:17:50.798Z,15.40
2023-04-20T15:20:18.592Z,12.48
2023-04-20T15:22:46.653Z,12.20
2023-04-20T15:25:14.645Z,15.95
2023-04-20T15:27:42.368Z,13.75
2023-04-20T15:30:12.306Z,13.18
2023-04-20T15:32:41.555Z,11.07
2023-04-20T15:35:09.637Z,12.32
2023-04-20T15:37:38.023Z,12.85
2023-04-20T15:40:06.895Z,11.18
2023-04-20T15:42:34.698Z,13.02
2023-04-20T15:45:02.652Z,11.80
2023-04-20T15:47:31.860Z,11.88
2023-04-20T15:50:01.614Z,10.43
2023-04-20T15:52:30.616Z,12.68
2023-04-20T15:54:58.388Z,9.63
2023-04-20T15:57:26.208Z,11.10
2023-04-20T15:59:54.040Z,11.65
2023-04-20T16:02:21.955Z,10.77
2023-04-20T16:04:51.465Z,12.18
2023-04-20T16:07:19.482Z,12.40
2023-04-20T16:09:47.290Z,12.32
2023-04-20T16:12:15.100Z,10.70
2023-04-20T16:14:42.890Z,10.60
2023-04-20T16:17:11.018Z,10.65
2023-04-20T16:19:38.816Z,9.95
2023-04-20T16:22:07.943Z,11.68
2023-04-20T16:24:35.700Z,13.18
2023-04-20T16:27:03.850Z,9.90
2023-04-20T16:29:31.665Z,11.77
2023-04-20T16:31:59.542Z,12.45
2023-04-20T16:34:27.311Z,13.32
2023-04-20T16:36:55.170Z,12.98
2023-04-20T16:39:24.348Z,12.32
2023-04-20T16:41:52.380Z,10.15
2023-04-20T16:44:20.530Z,9.05
2023-04-20T16:46:50.530Z,12.98
2023-04-20T16:49:18.278Z,11.65
2023-04-20T16:51:46.227Z,9.98
2023-04-20T16:54:13.994Z,10.38
2023-04-20T16:56:43.044Z,12.30
2023-04-20T16:59:10.960Z,10.15
2023-04-20T17:01:38.836Z,9.65
2023-04-20T17:04:06.880Z,8.40
2023-04-20T17:06:34.854Z,10.27
2023-04-20T17:09:06.929Z,10.55
2023-04-20T17:11:36.033Z,11.10
2023-04-20T17:14:05.364Z,11.90
2023-04-20T17:16:33.213Z,12.00
2023-04-20T17:19:01.065Z,13.57
2023-04-20T17:21:29.104Z,11.95
2023-04-20T17:23:57.140Z,13.23
2023-04-20T17:26:24.977Z,11.40
2023-04-20T17:28:53.624Z,10.05
2023-04-20T17:31:22.884Z,11.65
2023-04-20T17:33:50.714Z,11.77
2023-04-20T17:36:18.468Z,11.30
2023-04-20T17:38:46.185Z,15.02
2023-04-20T17:41:14.003Z,12.00
2023-04-20T17:43:41.776Z,12.25
2023-04-20T17:46:09.762Z,9.35
2023-04-20T17:48:38.840Z,13.25
2023-04-20T17:51:06.627Z,9.57
2023-04-20T17:53:34.351Z,8.70
2023-04-20T17:56:02.090Z,12.63
2023-04-20T17:58:29.879Z,10.38
2023-04-20T18:00:57.712Z,12.35
2023-04-20T18:03:25.842Z,12.43
2023-04-20T18:05:55.115Z,12.32
2023-04-20T18:08:23.340Z,11.60
2023-04-20T18:10:51.175Z,13.48
2023-04-20T18:13:18.952Z,11.27
2023-04-20T18:15:46.761Z,12.05
2023-04-20T18:18:16.695Z,10.63
2023-04-20T18:20:44.835Z,13.45
2023-04-20T18:23:14.568Z,9.02
2023-04-20T18:25:42.669Z,9.82
2023-04-20T18:28:10.861Z,9.45
2023-04-20T18:30:38.695Z,11.30
2023-04-20T18:33:06.591Z,9.95
2023-04-20T18:35:34.691Z,10.70
2023-04-20T18:38:03.017Z,11.00
2023-04-20T18:40:32.426Z,11.37
2023-04-20T18:43:00.232Z,13.87
2023-04-20T18:45:29.323Z,12.70
2023-04-20T18:47:58.060Z,14.00
2023-04-20T18:50:26.011Z,10.63
2023-04-20T18:52:53.910Z,16.23
2023-04-20T18:55:21.704Z,10.37
2023-04-20T18:57:50.848Z,14.63
2023-04-20T19:00:20.671Z,13.17
2023-04-20T19:02:48.676Z,14.30
2023-04-20T19:05:16.579Z,14.03
2023-04-20T19:07:46.083Z,12.73
2023-04-20T19:10:14.036Z,12.40
2023-04-20T19:12:42.006Z,15.03
2023-04-20T19:15:12.262Z,13.07
2023-04-20T19:17:40.020Z,16.30
2023-04-20T19:20:09.499Z,12.13
2023-04-20T19:22:37.287Z,15.20
2023-04-20T19:25:05.825Z,14.57
2023-04-20T19:27:33.842Z,11.47
2023-04-20T19:30:01.739Z,12.07
2023-04-20T19:32:30.913Z,15.40
2023-04-20T19:34:59.699Z,12.97
2023-04-20T19:37:28.018Z,11.83
2023-04-20T19:39:55.808Z,15.03
2023-04-20T19:42:23.782Z,20.47
2023-04-20T19:44:51.605Z,12.13
2023-04-20T19:47:20.235Z,14.80
2023-04-20T19:49:49.629Z,13.30
2023-04-20T19:52:17.387Z,12.37
2023-04-20T19:54:45.130Z,11.73
2023-04-20T19:57:12.940Z,15.00
2023-04-20T19:59:42.046Z,13.03
2023-04-20T20:02:09.881Z,13.67
2023-04-20T20:04:39.228Z,13.73
2023-04-20T20:07:08.496Z,11.47
2023-04-20T20:09:36.529Z,12.27
2023-04-20T20:12:05.419Z,14.93
2023-04-20T20:14:33.277Z,14.23
2023-04-20T20:17:01.087Z,15.67
2023-04-20T20:19:29.892Z,14.10
2023-04-20T20:21:57.651Z,14.03
2023-04-20T20:24:26.770Z,15.73
2023-04-20T20:26:54.754Z,11.73
2023-04-20T20:29:23.047Z,12.27
2023-04-20T20:31:50.849Z,13.63
2023-04-20T20:34:18.611Z,15.77
2023-04-20T20:36:47.033Z,14.03
2023-04-20T20:39:15.994Z,13.43
2023-04-20T20:41:46.536Z,12.47
2023-04-20T20:44:14.513Z,13.53
2023-04-20T20:46:42.505Z,11.43
2023-04-20T20:49:10.380Z,13.70
2023-04-20T20:51:38.212Z,13.40
2023-04-20T20:54:06.249Z,14.37
2023-04-20T20:56:34.045Z,10.50
2023-04-20T20:59:03.112Z,10.83
2023-04-20T21:01:31.587Z,12.53
2023-04-20T21:03:59.443Z,15.17
2023-04-20T21:06:27.296Z,13.90
2023-04-20T21:08:55.489Z,14.83
2023-04-20T21:11:23.426Z,11.23
2023-04-20T21:13:51.159Z,13.63
2023-04-20T21:16:20.275Z,11.73
2023-04-20T21:18:48.010Z,15.63
2023-04-20T21:21:16.517Z,11.40
2023-04-20T21:23:44.399Z,12.43
2023-04-20T21:26:12.191Z,11.27
2023-04-20T21:28:39.921Z,10.37
2023-04-20T21:31:07.672Z,11.60
2023-04-20T21:33:36.840Z,11.27
2023-04-20T21:36:05.044Z,11.33
2023-04-20T21:38:32.774Z,12.60
2023-04-20T21:41:00.668Z,12.80
2023-04-20T21:43:28.462Z,13.03
2023-04-20T21:45:56.239Z,12.10
2023-04-20T21:48:24.031Z,12.10
2023-04-20T21:50:53.152Z,13.13
2023-04-20T21:53:20.884Z,10.83
2023-04-20T21:55:48.644Z,14.03
2023-04-20T21:58:16.803Z,12.57
2023-04-20T22:00:44.569Z,8.77
2023-04-20T22:03:12.404Z,14.33
2023-04-20T22:05:40.343Z,13.07
2023-04-20T22:08:09.524Z,13.57
2023-04-20T22:10:37.280Z,9.20
2023-04-20T22:13:05.005Z,14.70
2023-04-20T22:15:33.032Z,11.83
2023-04-20T22:18:01.104Z,8.43
2023-04-20T22:20:28.904Z,10.43
2023-04-20T22:22:57.393Z,10.37
2023-04-20T22:25:26.653Z,14.83
2023-04-20T22:27:54.390Z,10.23
2023-04-20T22:30:22.171Z,13.43
2023-04-20T22:32:49.953Z,8.73
2023-04-20T22:35:18.003Z,10.63
2023-04-20T22:37:45.794Z,13.03
2023-04-20T22:40:14.171Z,15.40
2023-04-20T22:42:43.241Z,13.10
2023-04-20T22:45:12.100Z,7.97
2023-04-20T22:47:40.067Z,12.53
2023-04-20T22:50:09.547Z,16.10
2023-04-20T22:52:38.120Z,10.20
2023-04-20T22:55:06.683Z,13.07
2023-04-20T22:57:34.434Z,11.63
2023-04-20T23:00:06.303Z,13.00
2023-04-20T23:02:34.152Z,11.20
2023-04-20T23:05:02.739Z,13.03
2023-04-20T23:07:31.937Z,8.83
2023-04-20T23:10:01.433Z,11.23
2023-04-20T23:12:29.993Z,10.47
2023-04-20T23:15:00.612Z,13.77
2023-04-20T23:17:30.020Z,11.60
2023-04-20T23:19:58.325Z,13.93
2023-04-20T23:22:26.054Z,12.13
2023-04-20T23:24:53.801Z,14.87
2023-04-20T23:27:21.532Z,12.60
2023-04-20T23:29:49.284Z,12.07
2023-04-20T23:32:16.985Z,11.47
2023-04-20T23:34:46.040Z,10.90
2023-04-20T23:37:13.743Z,10.80
2023-04-20T23:39:41.531Z,14.47
2023-04-20T23:42:09.286Z,9.47
2023-04-20T23:44:37.017Z,11.67
2023-04-20T23:47:04.755Z,13.23
2023-04-20T23:49:32.519Z,11.20
2023-04-20T23:52:01.593Z,12.07
2023-04-20T23:54:30.684Z,9.57
2023-04-20T23:56:59.516Z,10.67
2023-04-20T23:59:27.246Z,11.93
